Time;durP1;ratioP1;P1;durP2;ratioP2;P2;SDS_P1;SDS_P2;PMS_P1;PMS_P2;Temp;Humidity;BMP_temperature;BMP_pressure;BME280_temperature;BME280_humidity;BME280_pressure;Samples;Min_cycle;Max_cycle;Signal;HPM_P1;HPM_P2
2022/03/25 00:00:21;;;;;;;49.33;23.88;;;;;;;;;;4937980;29;20643;-62
2022/03/25 00:02:47;;;;;;;44.25;24.20;;;;;;;;;;4938465;29;20172;-61
2022/03/25 00:05:12;;;;;;;42.78;23.70;;;;;;;;;;4938112;29;20173;-61
2022/03/25 00:07:38;;;;;;;44.25;24.83;;;;;;;;;;4937873;29;20169;-61
2022/03/25 00:10:05;;;;;;;42.67;23.40;;;;;;;;;;4937221;29;20173;-61
2022/03/25 00:12:31;;;;;;;48.72;25.27;;;;;;;;;;4937591;29;20176;-62
2022/03/25 00:14:57;;;;;;;43.55;23.52;;;;;;;;;;4937655;29;20594;-61
2022/03/25 00:17:24;;;;;;;49.47;24.38;;;;;;;;;;4937947;29;20165;-61
2022/03/25 00:19:50;;;;;;;47.55;23.83;;;;;;;;;;4937712;29;20195;-61
2022/03/25 00:22:16;;;;;;;42.08;23.55;;;;;;;;;;4938359;29;20177;-61
2022/03/25 00:24:42;;;;;;;43.53;24.48;;;;;;;;;;4938069;29;20176;-61
2022/03/25 00:27:09;;;;;;;45.60;23.92;;;;;;;;;;4937550;29;20169;-61
2022/03/25 00:29:34;;;;;;;47.88;23.80;;;;;;;;;;4937681;29;20201;-61
2022/03/25 00:32:01;;;;;;;43.17;24.83;;;;;;;;;;4937689;29;20244;-61
2022/03/25 00:34:27;;;;;;;48.35;24.08;;;;;;;;;;4938072;29;20168;-61
2022/03/25 00:36:53;;;;;;;45.47;24.38;;;;;;;;;;4941661;29;20275;-61
2022/03/25 00:39:19;;;;;;;46.05;24.45;;;;;;;;;;4941175;29;20594;-61
2022/03/25 00:41:45;;;;;;;46.97;24.23;;;;;;;;;;4940865;29;20255;-61
2022/03/25 00:44:12;;;;;;;44.33;22.67;;;;;;;;;;4940677;29;20173;-61
2022/03/25 00:46:39;;;;;;;44.47;23.52;;;;;;;;;;4940623;29;20264;-61
2022/03/25 00:49:05;;;;;;;43.17;23.40;;;;;;;;;;4940670;29;20544;-61
2022/03/25 00:51:31;;;;;;;47.75;23.38;;;;;;;;;;4940962;29;20177;-61
2022/03/25 00:53:57;;;;;;;42.60;23.17;;;;;;;;;;4939622;29;20696;-61
2022/03/25 00:56:24;;;;;;;46.03;23.67;;;;;;;;;;4940283;29;20189;-61
2022/03/25 00:58:50;;;;;;;49.25;24.77;;;;;;;;;;4940537;29;20225;-61
2022/03/25 01:01:16;;;;;;;49.28;25.25;;;;;;;;;;4940634;29;20589;-61
2022/03/25 01:03:42;;;;;;;47.70;24.95;;;;;;;;;;4940304;29;20165;-61
2022/03/25 01:06:08;;;;;;;53.95;27.15;;;;;;;;;;4940183;29;20183;-61
2022/03/25 01:08:35;;;;;;;52.17;27.15;;;;;;;;;;4939361;29;20249;-61
2022/03/25 01:11:01;;;;;;;56.38;29.38;;;;;;;;;;4939417;29;20181;-61
2022/03/25 01:13:32;;;;;;;55.65;28.70;;;;;;;;;;4940244;29;20593;-61
2022/03/25 01:15:58;;;;;;;51.45;25.80;;;;;;;;;;4940150;29;20536;-61
2022/03/25 01:18:25;;;;;;;57.08;28.80;;;;;;;;;;4939410;29;20188;-61
2022/03/25 01:20:51;;;;;;;56.30;28.02;;;;;;;;;;4939968;29;20161;-61
2022/03/25 01:23:17;;;;;;;51.03;26.70;;;;;;;;;;4940140;29;20248;-61
2022/03/25 01:25:43;;;;;;;53.03;27.67;;;;;;;;;;4940457;29;20552;-61
2022/03/25 01:28:09;;;;;;;54.45;28.75;;;;;;;;;;4940291;29;20242;-62
2022/03/25 01:30:35;;;;;;;60.60;29.35;;;;;;;;;;4939873;29;20237;-61
2022/03/25 01:33:03;;;;;;;58.67;29.13;;;;;;;;;;4940266;29;20172;-61
2022/03/25 01:35:28;;;;;;;60.72;28.25;;;;;;;;;;4940288;29;20204;-62
2022/03/25 01:37:55;;;;;;;57.08;29.30;;;;;;;;;;4940329;29;20188;-61
2022/03/25 01:40:21;;;;;;;54.25;29.13;;;;;;;;;;4940503;29;20169;-62
2022/03/25 01:42:52;;;;;;;56.63;30.35;;;;;;;;;;4940112;29;20676;-61
2022/03/25 01:45:30;;;;;;;55.47;29.42;;;;;;;;;;4939716;29;20205;-62
2022/03/25 01:47:56;;;;;;;57.90;29.95;;;;;;;;;;4940472;29;20606;-61
2022/03/25 01:50:22;;;;;;;57.42;30.13;;;;;;;;;;4940422;29;20197;-61
2022/03/25 01:52:50;;;;;;;55.65;30.50;;;;;;;;;;4940301;29;20176;-61
2022/03/25 01:55:17;;;;;;;55.83;29.58;;;;;;;;;;4940538;29;20628;-62
2022/03/25 01:57:43;;;;;;;56.15;28.83;;;;;;;;;;4940969;29;20168;-61
2022/03/25 02:00:09;;;;;;;57.05;29.77;;;;;;;;;;4940443;29;20590;-61
2022/03/25 02:02:37;;;;;;;56.53;31.50;;;;;;;;;;4939913;29;20180;-62
2022/03/25 02:05:03;;;;;;;59.83;31.20;;;;;;;;;;4939891;29;20435;-61
2022/03/25 02:07:29;;;;;;;57.28;29.38;;;;;;;;;;4939647;29;20223;-61
2022/03/25 02:09:56;;;;;;;58.53;29.23;;;;;;;;;;4939633;29;20252;-61
2022/03/25 02:12:22;;;;;;;59.00;30.02;;;;;;;;;;4939232;29;20593;-61
2022/03/25 02:14:49;;;;;;;58.20;29.55;;;;;;;;;;4939767;29;20169;-61
2022/03/25 02:17:15;;;;;;;56.17;29.52;;;;;;;;;;4939937;29;20176;-61
2022/03/25 02:19:41;;;;;;;58.42;29.63;;;;;;;;;;4939560;29;20625;-62
2022/03/25 02:22:08;;;;;;;59.92;30.55;;;;;;;;;;4940104;29;20176;-62
2022/03/25 02:24:34;;;;;;;58.05;30.48;;;;;;;;;;4940031;29;20169;-61
2022/03/25 02:27:00;;;;;;;56.47;30.52;;;;;;;;;;4939336;29;20212;-62
2022/03/25 02:29:26;;;;;;;60.15;31.65;;;;;;;;;;4939383;29;20180;-61
2022/03/25 02:31:52;;;;;;;57.40;30.58;;;;;;;;;;4939196;29;20177;-61
2022/03/25 02:34:18;;;;;;;59.85;30.98;;;;;;;;;;4940149;29;20224;-61
2022/03/25 02:36:45;;;;;;;58.38;30.75;;;;;;;;;;4939160;29;20197;-62
2022/03/25 02:39:12;;;;;;;58.20;29.23;;;;;;;;;;4939222;29;20180;-61
2022/03/25 02:41:38;;;;;;;57.63;29.15;;;;;;;;;;4939949;29;20264;-61
2022/03/25 02:44:04;;;;;;;58.17;30.33;;;;;;;;;;4939696;29;20193;-61
2022/03/25 02:46:30;;;;;;;62.72;30.10;;;;;;;;;;4938524;29;20177;-61
2022/03/25 02:48:56;;;;;;;53.10;29.15;;;;;;;;;;4938454;29;20173;-60
2022/03/25 02:51:22;;;;;;;58.47;31.42;;;;;;;;;;4938179;29;20198;-61
2022/03/25 02:53:48;;;;;;;59.83;30.00;;;;;;;;;;4938536;29;20184;-61
2022/03/25 02:56:14;;;;;;;62.65;31.13;;;;;;;;;;4938589;29;20192;-60
2022/03/25 02:58:40;;;;;;;61.38;31.58;;;;;;;;;;4937391;29;20609;-60
2022/03/25 03:01:06;;;;;;;60.85;30.80;;;;;;;;;;4938269;29;20542;-60
2022/03/25 03:03:32;;;;;;;56.70;30.95;;;;;;;;;;4939151;29;20239;-61
2022/03/25 03:05:58;;;;;;;58.17;30.17;;;;;;;;;;4939494;29;20261;-61
2022/03/25 03:08:24;;;;;;;63.42;30.98;;;;;;;;;;4939222;29;20200;-61
2022/03/25 03:10:50;;;;;;;61.25;30.60;;;;;;;;;;4939168;29;20505;-61
2022/03/25 03:13:16;;;;;;;57.08;30.00;;;;;;;;;;4939179;29;20169;-61
2022/03/25 03:15:42;;;;;;;62.95;29.73;;;;;;;;;;4939068;29;20217;-61
2022/03/25 03:18:14;;;;;;;61.00;31.77;;;;;;;;;;4938511;29;20204;-61
2022/03/25 03:20:40;;;;;;;58.65;29.10;;;;;;;;;;4937671;29;20176;-61
2022/03/25 03:23:07;;;;;;;53.13;28.92;;;;;;;;;;4939245;29;20177;-61
2022/03/25 03:25:33;;;;;;;56.95;30.20;;;;;;;;;;4938940;29;20172;-61
2022/03/25 03:28:00;;;;;;;58.33;30.17;;;;;;;;;;4937564;29;20609;-61
2022/03/25 03:30:26;;;;;;;56.78;29.23;;;;;;;;;;4939260;29;20188;-61
2022/03/25 03:32:56;;;;;;;55.83;29.13;;;;;;;;;;4939208;29;20165;-61
2022/03/25 03:35:23;;;;;;;59.10;30.20;;;;;;;;;;4939311;29;20203;-61
2022/03/25 03:37:49;;;;;;;60.97;30.15;;;;;;;;;;4939400;29;20169;-60
2022/03/25 03:40:15;;;;;;;60.63;30.98;;;;;;;;;;4937731;29;20169;-61
2022/03/25 03:42:41;;;;;;;52.33;28.70;;;;;;;;;;4938099;29;20165;-61
2022/03/25 03:45:08;;;;;;;54.80;30.02;;;;;;;;;;4939000;29;20165;-61
2022/03/25 03:47:34;;;;;;;49.60;27.30;;;;;;;;;;4938902;29;20610;-61
2022/03/25 03:50:00;;;;;;;54.72;28.60;;;;;;;;;;4938611;29;20244;-61
2022/03/25 03:52:26;;;;;;;50.35;25.63;;;;;;;;;;4938736;29;20549;-61
2022/03/25 03:54:52;;;;;;;56.20;29.15;;;;;;;;;;4938530;29;20620;-61
2022/03/25 03:57:18;;;;;;;65.90;30.45;;;;;;;;;;4937098;29;20176;-61
2022/03/25 03:59:44;;;;;;;52.10;27.35;;;;;;;;;;4938853;29;20177;-61
2022/03/25 04:02:10;;;;;;;60.47;28.65;;;;;;;;;;4938466;29;20614;-62
2022/03/25 04:04:36;;;;;;;65.35;32.50;;;;;;;;;;4938813;29;20200;-61
2022/03/25 04:07:02;;;;;;;58.08;29.77;;;;;;;;;;4937913;29;20602;-60
2022/03/25 04:09:28;;;;;;;57.75;30.45;;;;;;;;;;4939785;29;20168;-60
2022/03/25 04:11:54;;;;;;;60.28;29.83;;;;;;;;;;4941163;29;20268;-61
2022/03/25 04:14:21;;;;;;;55.85;29.20;;;;;;;;;;4941271;29;20173;-60
2022/03/25 04:16:47;;;;;;;65.68;31.50;;;;;;;;;;4941212;29;20204;-61
2022/03/25 04:19:13;;;;;;;54.78;27.25;;;;;;;;;;4940351;29;20271;-61
2022/03/25 04:21:39;;;;;;;56.35;28.02;;;;;;;;;;4940145;29;20204;-61
2022/03/25 04:24:05;;;;;;;57.15;28.35;;;;;;;;;;4940932;29;20169;-60
2022/03/25 04:26:31;;;;;;;57.33;28.17;;;;;;;;;;4940628;29;20177;-61
2022/03/25 04:28:57;;;;;;;52.55;26.90;;;;;;;;;;4940395;29;20175;-61
2022/03/25 04:31:23;;;;;;;61.25;28.75;;;;;;;;;;4940949;29;20177;-61
2022/03/25 04:33:49;;;;;;;57.50;28.52;;;;;;;;;;4941312;29;20189;-61
2022/03/25 04:36:15;;;;;;;52.75;26.40;;;;;;;;;;4942794;29;20247;-61
2022/03/25 04:38:41;;;;;;;55.30;28.08;;;;;;;;;;4942968;29;20165;-59
2022/03/25 04:41:10;;;;;;;53.90;28.42;;;;;;;;;;4950387;29;20165;-62
2022/03/25 04:43:36;;;;;;;58.20;27.90;;;;;;;;;;4951605;29;20228;-62
2022/03/25 04:46:02;;;;;;;54.47;25.95;;;;;;;;;;4951501;29;20657;-62
2022/03/25 04:48:28;;;;;;;53.17;28.05;;;;;;;;;;4949663;29;20629;-63
2022/03/25 04:50:54;;;;;;;61.80;28.25;;;;;;;;;;4949502;29;20260;-63
2022/03/25 04:53:21;;;;;;;56.03;28.75;;;;;;;;;;4948735;29;20188;-63
2022/03/25 04:55:47;;;;;;;58.97;28.13;;;;;;;;;;4947231;29;20189;-63
2022/03/25 04:58:14;;;;;;;55.17;26.67;;;;;;;;;;4946463;29;20179;-63
2022/03/25 05:00:40;;;;;;;62.03;27.98;;;;;;;;;;4952329;29;20192;-63
2022/03/25 05:03:06;;;;;;;57.97;28.27;;;;;;;;;;4957549;29;20168;-62
2022/03/25 05:05:32;;;;;;;68.88;31.27;;;;;;;;;;4959426;29;20184;-62
2022/03/25 05:07:58;;;;;;;72.28;32.72;;;;;;;;;;4959617;29;20169;-63
2022/03/25 05:10:24;;;;;;;69.47;30.55;;;;;;;;;;4960264;28;20191;-62
2022/03/25 05:12:50;;;;;;;68.13;33.30;;;;;;;;;;4960055;29;20188;-62
2022/03/25 05:15:16;;;;;;;72.40;34.20;;;;;;;;;;4952949;29;20204;-62
2022/03/25 05:17:44;;;;;;;71.72;34.60;;;;;;;;;;4942368;29;20179;-63
2022/03/25 05:20:10;;;;;;;74.63;35.35;;;;;;;;;;4938346;29;20161;-63
2022/03/25 05:22:36;;;;;;;77.75;36.03;;;;;;;;;;4938929;29;20264;-62
2022/03/25 05:25:06;;;;;;;73.13;34.33;;;;;;;;;;4938409;29;20253;-62
2022/03/25 05:27:32;;;;;;;74.72;34.65;;;;;;;;;;4938820;29;20205;-62
2022/03/25 05:29:58;;;;;;;68.15;31.70;;;;;;;;;;4938350;29;20478;-62
2022/03/25 05:32:23;;;;;;;69.03;33.10;;;;;;;;;;4938339;29;20169;-62
2022/03/25 05:34:50;;;;;;;68.88;33.88;;;;;;;;;;4938383;29;20559;-62
2022/03/25 05:37:16;;;;;;;63.72;30.75;;;;;;;;;;4938581;29;20242;-61
2022/03/25 05:39:42;;;;;;;58.60;30.65;;;;;;;;;;4938448;29;20193;-62
2022/03/25 05:42:09;;;;;;;57.45;29.88;;;;;;;;;;4938444;29;20256;-62
2022/03/25 05:44:35;;;;;;;53.60;26.90;;;;;;;;;;4938266;29;20183;-62
2022/03/25 05:47:01;;;;;;;63.38;29.25;;;;;;;;;;4938351;29;20247;-62
2022/03/25 05:49:27;;;;;;;50.88;27.02;;;;;;;;;;4938083;29;20228;-62
2022/03/25 05:51:53;;;;;;;51.95;27.50;;;;;;;;;;4938467;29;20509;-63
2022/03/25 05:54:18;;;;;;;62.03;30.25;;;;;;;;;;4937890;29;20673;-61
2022/03/25 05:56:44;;;;;;;59.03;30.02;;;;;;;;;;4937686;29;20645;-62
2022/03/25 05:59:11;;;;;;;60.33;29.55;;;;;;;;;;4937825;29;20169;-61
2022/03/25 06:01:38;;;;;;;64.93;32.08;;;;;;;;;;4937949;29;20165;-62
2022/03/25 06:04:04;;;;;;;68.53;33.67;;;;;;;;;;4938062;29;20169;-63
2022/03/25 06:06:30;;;;;;;68.00;32.97;;;;;;;;;;4937836;29;20200;-61
2022/03/25 06:08:56;;;;;;;69.72;33.17;;;;;;;;;;4938211;29;20173;-62
2022/03/25 06:11:22;;;;;;;67.35;34.72;;;;;;;;;;4938549;29;20593;-62
2022/03/25 06:13:48;;;;;;;70.18;34.70;;;;;;;;;;4941440;29;20173;-63
2022/03/25 06:16:14;;;;;;;66.53;33.67;;;;;;;;;;4937491;29;20204;-63
2022/03/25 06:18:40;;;;;;;68.35;35.13;;;;;;;;;;4937833;29;20191;-63
2022/03/25 06:21:06;;;;;;;66.50;33.47;;;;;;;;;;4937775;29;20165;-63
2022/03/25 06:23:32;;;;;;;69.85;34.58;;;;;;;;;;4937573;29;20172;-63
2022/03/25 06:25:59;;;;;;;65.95;34.53;;;;;;;;;;4937521;29;20665;-63
2022/03/25 06:28:25;;;;;;;65.00;32.97;;;;;;;;;;4937591;29;20181;-62
2022/03/25 06:30:51;;;;;;;69.43;35.58;;;;;;;;;;4937390;29;20243;-61
2022/03/25 06:33:17;;;;;;;68.47;33.10;;;;;;;;;;4936856;29;20593;-63
2022/03/25 06:35:44;;;;;;;63.55;34.45;;;;;;;;;;4937386;29;20617;-62
2022/03/25 06:38:10;;;;;;;64.50;34.20;;;;;;;;;;4937241;29;20552;-63
2022/03/25 06:40:36;;;;;;;64.28;36.40;;;;;;;;;;4937437;29;20227;-64
2022/03/25 06:43:03;;;;;;;65.70;34.30;;;;;;;;;;4937224;29;20169;-64
2022/03/25 06:45:29;;;;;;;67.70;34.35;;;;;;;;;;4937049;29;20173;-63
2022/03/25 06:47:55;;;;;;;63.78;33.38;;;;;;;;;;4937115;29;20169;-61
2022/03/25 06:50:24;;;;;;;69.28;33.10;;;;;;;;;;4937477;29;20618;-62
2022/03/25 06:52:50;;;;;;;63.75;34.10;;;;;;;;;;4937004;29;20247;-62
2022/03/25 06:55:16;;;;;;;63.60;34.15;;;;;;;;;;4937230;29;20653;-62
2022/03/25 06:57:42;;;;;;;65.25;33.42;;;;;;;;;;4936974;29;20212;-60
2022/03/25 07:00:12;;;;;;;62.78;32.95;;;;;;;;;;4937131;29;20232;-63
2022/03/25 07:02:38;;;;;;;62.10;31.98;;;;;;;;;;4936745;29;20176;-60
2022/03/25 07:05:04;;;;;;;62.33;32.60;;;;;;;;;;4936892;29;20176;-61
2022/03/25 07:07:31;;;;;;;56.15;31.10;;;;;;;;;;4936568;29;20188;-63
2022/03/25 07:09:57;;;;;;;55.80;31.02;;;;;;;;;;4937104;29;20169;-62
2022/03/25 07:12:23;;;;;;;55.28;31.05;;;;;;;;;;4936975;29;20176;-61
2022/03/25 07:14:49;;;;;;;56.30;31.42;;;;;;;;;;4936900;29;20264;-63
2022/03/25 07:17:15;;;;;;;60.47;30.70;;;;;;;;;;4936584;29;20631;-62
2022/03/25 07:19:41;;;;;;;51.40;28.52;;;;;;;;;;4936539;29;20184;-63
2022/03/25 07:22:07;;;;;;;54.25;30.40;;;;;;;;;;4936818;29;20165;-62
2022/03/25 07:24:33;;;;;;;55.05;29.63;;;;;;;;;;4936778;29;20244;-61
2022/03/25 07:26:59;;;;;;;53.70;29.23;;;;;;;;;;4936943;29;20264;-63
2022/03/25 07:29:25;;;;;;;55.20;30.27;;;;;;;;;;4936452;29;20172;-61
2022/03/25 07:31:51;;;;;;;55.28;29.27;;;;;;;;;;4936736;29;20219;-62
2022/03/25 07:34:17;;;;;;;51.38;29.17;;;;;;;;;;4936504;29;20606;-62
2022/03/25 07:36:43;;;;;;;54.75;29.30;;;;;;;;;;4936467;29;20212;-62
2022/03/25 07:39:09;;;;;;;48.05;28.52;;;;;;;;;;4936785;29;20238;-63
2022/03/25 07:41:35;;;;;;;49.88;27.65;;;;;;;;;;4936618;29;20161;-63
2022/03/25 07:44:01;;;;;;;53.72;29.55;;;;;;;;;;4938227;29;20615;-61
2022/03/25 07:46:28;;;;;;;46.45;26.20;;;;;;;;;;4940481;29;20173;-62
2022/03/25 07:48:54;;;;;;;47.28;26.83;;;;;;;;;;4940313;29;20231;-64
2022/03/25 07:51:20;;;;;;;49.22;26.60;;;;;;;;;;4940457;29;20184;-62
2022/03/25 07:53:46;;;;;;;48.65;26.25;;;;;;;;;;4940657;29;20651;-62
2022/03/25 07:56:12;;;;;;;41.15;23.63;;;;;;;;;;4940623;29;20240;-63
2022/03/25 07:58:38;;;;;;;42.67;24.08;;;;;;;;;;4941195;29;20169;-63
2022/03/25 08:01:04;;;;;;;39.65;23.15;;;;;;;;;;4940348;29;20176;-62
2022/03/25 08:03:30;;;;;;;42.65;23.17;;;;;;;;;;4940275;29;20204;-62
2022/03/25 08:05:56;;;;;;;39.15;20.65;;;;;;;;;;4940779;29;20208;-62
2022/03/25 08:08:22;;;;;;;32.30;20.20;;;;;;;;;;4940083;29;20165;-63
2022/03/25 08:10:54;;;;;;;36.95;19.10;;;;;;;;;;4940016;29;20692;-60
2022/03/25 08:13:20;;;;;;;34.90;17.60;;;;;;;;;;4940867;29;20248;-62
2022/03/25 08:15:46;;;;;;;26.77;17.15;;;;;;;;;;4939894;29;20288;-64
2022/03/25 08:18:13;;;;;;;37.70;19.30;;;;;;;;;;4940445;29;20243;-61
2022/03/25 08:20:41;;;;;;;28.63;17.48;;;;;;;;;;4939607;29;20157;-61
2022/03/25 08:23:07;;;;;;;30.20;17.17;;;;;;;;;;4939778;29;20165;-61
2022/03/25 08:28:19;;;;;;;28.52;16.05;;;;;;;;;;4939825;29;20164;-62
2022/03/25 08:30:46;;;;;;;28.02;14.77;;;;;;;;;;4939699;29;20173;-61
2022/03/25 08:33:12;;;;;;;22.92;12.68;;;;;;;;;;4939547;29;20552;-62
2022/03/25 08:35:39;;;;;;;25.38;13.98;;;;;;;;;;4939758;29;20196;-62
2022/03/25 08:38:06;;;;;;;23.65;12.38;;;;;;;;;;4939368;29;20169;-62
2022/03/25 08:40:34;;;;;;;21.88;11.88;;;;;;;;;;4939509;29;20169;-62
2022/03/25 08:43:01;;;;;;;23.17;12.57;;;;;;;;;;4939783;29;20251;-61
2022/03/25 08:45:27;;;;;;;19.27;10.60;;;;;;;;;;4940121;29;20177;-61
2022/03/25 08:47:53;;;;;;;21.15;11.63;;;;;;;;;;4938278;29;20177;-62
2022/03/25 08:50:19;;;;;;;19.48;8.50;;;;;;;;;;4939515;29;20255;-62
2022/03/25 08:52:46;;;;;;;14.63;8.15;;;;;;;;;;4939408;29;20177;-62
2022/03/25 08:55:13;;;;;;;20.17;8.90;;;;;;;;;;4938603;29;20184;-63
2022/03/25 08:57:40;;;;;;;16.85;8.88;;;;;;;;;;4939428;29;20173;-63
2022/03/25 09:00:08;;;;;;;21.10;8.45;;;;;;;;;;4939141;29;20169;-60
2022/03/25 09:02:34;;;;;;;15.15;7.57;;;;;;;;;;4939056;29;20172;-61
2022/03/25 09:05:00;;;;;;;14.55;7.72;;;;;;;;;;4939378;29;20181;-61
2022/03/25 09:07:26;;;;;;;17.73;9.20;;;;;;;;;;4938382;29;20449;-61
2022/03/25 09:09:52;;;;;;;16.52;8.18;;;;;;;;;;4938939;29;20215;-62
2022/03/25 09:12:17;;;;;;;14.27;7.47;;;;;;;;;;4938795;29;20165;-61
2022/03/25 09:14:43;;;;;;;15.43;9.18;;;;;;;;;;4939344;29;20567;-62
2022/03/25 09:17:09;;;;;;;17.75;8.48;;;;;;;;;;4938704;29;20902;-62
2022/03/25 09:19:35;;;;;;;13.43;6.82;;;;;;;;;;4938678;29;20212;-63
2022/03/25 09:22:01;;;;;;;10.18;6.00;;;;;;;;;;4938847;29;20260;-62
2022/03/25 09:24:27;;;;;;;13.02;6.57;;;;;;;;;;4938633;29;20629;-63
2022/03/25 09:26:53;;;;;;;14.90;7.53;;;;;;;;;;4937553;29;20516;-62
2022/03/25 09:29:19;;;;;;;18.52;9.15;;;;;;;;;;4938509;29;20255;-63
2022/03/25 09:31:45;;;;;;;20.17;9.43;;;;;;;;;;4938917;29;20232;-62
2022/03/25 09:36:56;;;;;;;22.65;11.48;;;;;;;;;;4938291;29;20231;-62
2022/03/25 09:39:22;;;;;;;21.25;11.18;;;;;;;;;;4938600;29;20568;-61
2022/03/25 09:41:49;;;;;;;26.48;12.73;;;;;;;;;;4938630;29;20252;-62
2022/03/25 09:44:16;;;;;;;23.35;12.52;;;;;;;;;;4938756;29;20511;-62
2022/03/25 09:46:42;;;;;;;25.42;12.98;;;;;;;;;;4941551;29;20508;-62
2022/03/25 09:49:12;;;;;;;26.80;13.45;;;;;;;;;;4938242;29;20505;-63
2022/03/25 09:51:38;;;;;;;26.58;13.65;;;;;;;;;;4938334;29;20538;-64
2022/03/25 09:54:06;;;;;;;26.92;13.90;;;;;;;;;;4938062;29;20197;-63
2022/03/25 09:56:34;;;;;;;28.67;14.63;;;;;;;;;;4938218;29;20201;-63
2022/03/25 09:59:00;;;;;;;30.83;14.18;;;;;;;;;;4938074;29;20176;-63
2022/03/25 10:01:26;;;;;;;28.02;14.48;;;;;;;;;;4938229;29;20184;-62
2022/03/25 10:03:52;;;;;;;25.65;13.88;;;;;;;;;;4937832;29;20200;-63
2022/03/25 10:06:18;;;;;;;26.95;14.63;;;;;;;;;;4937600;29;20172;-61
2022/03/25 10:08:45;;;;;;;30.00;15.38;;;;;;;;;;4937617;29;20176;-63
2022/03/25 10:11:27;;;;;;;27.40;14.02;;;;;;;;;;4937861;29;20169;-63
2022/03/25 10:14:15;;;;;;;32.53;16.40;;;;;;;;;;4938059;29;20200;-61
2022/03/25 10:16:45;;;;;;;27.77;15.68;;;;;;;;;;4939009;29;20204;-62
2022/03/25 10:19:12;;;;;;;28.45;15.00;;;;;;;;;;4937452;29;20183;-62
2022/03/25 10:21:57;;;;;;;25.90;13.68;;;;;;;;;;4937427;29;20256;-62
2022/03/25 10:24:44;;;;;;;25.27;15.20;;;;;;;;;;4937593;29;20200;-62
2022/03/25 10:27:10;;;;;;;27.25;15.43;;;;;;;;;;4937453;29;20160;-63
2022/03/25 10:29:36;;;;;;;28.38;14.52;;;;;;;;;;4937445;29;20172;-63
2022/03/25 10:32:05;;;;;;;27.17;15.25;;;;;;;;;;4937444;29;20207;-62
2022/03/25 10:34:31;;;;;;;27.55;15.98;;;;;;;;;;4937424;29;20173;-62
2022/03/25 10:37:04;;;;;;;29.27;16.75;;;;;;;;;;4937154;29;20204;-63
2022/03/25 10:39:31;;;;;;;30.77;17.27;;;;;;;;;;4937249;29;20180;-62
2022/03/25 10:42:01;;;;;;;35.60;17.13;;;;;;;;;;4937679;29;20169;-63
2022/03/25 10:44:43;;;;;;;32.03;16.30;;;;;;;;;;4937639;29;20594;-62
2022/03/25 10:47:17;;;;;;;27.30;15.30;;;;;;;;;;4937389;29;20215;-63
2022/03/25 10:49:46;;;;;;;24.10;13.63;;;;;;;;;;4936831;29;20179;-62
2022/03/25 10:52:25;;;;;;;26.77;14.57;;;;;;;;;;4937374;29;20181;-61
2022/03/25 10:55:11;;;;;;;29.85;14.35;;;;;;;;;;4937467;29;20505;-62
2022/03/25 10:57:56;;;;;;;24.00;13.30;;;;;;;;;;4936995;29;20181;-60
2022/03/25 11:00:23;;;;;;;25.83;14.93;;;;;;;;;;4936310;29;20419;-61
2022/03/25 11:02:49;;;;;;;23.88;13.95;;;;;;;;;;4937329;29;20173;-61
2022/03/25 11:05:16;;;;;;;24.15;13.60;;;;;;;;;;4936941;29;20568;-61
2022/03/25 11:07:43;;;;;;;24.42;13.00;;;;;;;;;;4937054;29;20612;-62
2022/03/25 11:10:13;;;;;;;24.05;12.65;;;;;;;;;;4936913;29;20173;-61
2022/03/25 11:12:41;;;;;;;22.52;12.52;;;;;;;;;;4937241;29;20620;-61
2022/03/25 11:15:09;;;;;;;23.08;12.25;;;;;;;;;;4936653;29;20639;-62
2022/03/25 11:17:36;;;;;;;21.73;13.20;;;;;;;;;;4936424;29;20452;-62
2022/03/25 11:20:02;;;;;;;21.38;11.93;;;;;;;;;;4936470;29;20588;-62
2022/03/25 11:22:28;;;;;;;21.85;12.65;;;;;;;;;;4937150;29;20479;-63
2022/03/25 11:24:56;;;;;;;25.90;12.90;;;;;;;;;;4936462;29;20175;-62
2022/03/25 11:27:24;;;;;;;23.88;12.35;;;;;;;;;;4936527;29;20169;-62
2022/03/25 11:29:52;;;;;;;26.08;13.52;;;;;;;;;;4936617;29;20259;-63
2022/03/25 11:32:18;;;;;;;27.15;13.65;;;;;;;;;;4936984;29;20613;-62
2022/03/25 11:35:07;;;;;;;23.08;13.70;;;;;;;;;;4936533;29;20180;-63
2022/03/25 11:37:34;;;;;;;27.42;13.80;;;;;;;;;;4936399;29;20231;-62
2022/03/25 11:40:22;;;;;;;28.88;15.68;;;;;;;;;;4936384;29;20173;-62
2022/03/25 11:42:49;;;;;;;32.97;16.50;;;;;;;;;;4936695;29;20212;-63
2022/03/25 11:45:21;;;;;;;28.50;15.93;;;;;;;;;;4936597;29;20173;-63
2022/03/25 11:48:03;;;;;;;29.05;15.25;;;;;;;;;;4936667;29;20169;-63
2022/03/25 11:50:29;;;;;;;28.70;14.60;;;;;;;;;;4936334;29;20243;-63
2022/03/25 11:52:56;;;;;;;27.10;14.80;;;;;;;;;;4936375;29;20169;-62
2022/03/25 11:55:22;;;;;;;24.65;12.90;;;;;;;;;;4936122;29;20514;-62
2022/03/25 11:57:48;;;;;;;27.85;14.82;;;;;;;;;;4935267;29;20659;-63
2022/03/25 12:00:24;;;;;;;26.83;15.63;;;;;;;;;;4936362;29;20509;-63
2022/03/25 12:03:00;;;;;;;30.38;17.02;;;;;;;;;;4936295;29;20165;-63
2022/03/25 12:05:26;;;;;;;26.00;15.45;;;;;;;;;;4936328;29;20169;-63
2022/03/25 12:08:11;;;;;;;26.80;14.93;;;;;;;;;;4936691;29;20187;-63
2022/03/25 12:10:44;;;;;;;25.98;15.02;;;;;;;;;;4936257;29;20180;-62
2022/03/25 12:13:10;;;;;;;23.67;14.75;;;;;;;;;;4936571;29;20165;-63
2022/03/25 12:15:40;;;;;;;25.65;14.02;;;;;;;;;;4936609;29;20200;-63
2022/03/25 12:18:25;;;;;;;23.13;13.18;;;;;;;;;;4936725;29;20645;-62
2022/03/25 12:20:51;;;;;;;25.15;13.00;;;;;;;;;;4936193;29;20173;-64
2022/03/25 12:23:20;;;;;;;23.10;12.50;;;;;;;;;;4936253;29;20745;-61
2022/03/25 12:25:46;;;;;;;23.65;14.00;;;;;;;;;;4936352;29;20188;-62
2022/03/25 12:28:12;;;;;;;19.50;12.20;;;;;;;;;;4936448;29;20259;-63
2022/03/25 12:30:38;;;;;;;22.60;12.82;;;;;;;;;;4938382;29;20177;-61
2022/03/25 12:33:08;;;;;;;18.55;11.50;;;;;;;;;;4940653;29;20172;-61
2022/03/25 12:35:36;;;;;;;21.10;12.55;;;;;;;;;;4940057;29;20204;-61
2022/03/25 12:38:20;;;;;;;22.60;13.07;;;;;;;;;;4943031;29;20197;-62
2022/03/25 12:40:46;;;;;;;22.60;11.90;;;;;;;;;;4943296;29;20176;-63
2022/03/25 12:43:12;;;;;;;22.77;13.07;;;;;;;;;;4943355;29;20207;-63
2022/03/25 12:45:44;;;;;;;23.15;12.60;;;;;;;;;;4943425;29;20165;-63
2022/03/25 12:48:12;;;;;;;21.73;12.68;;;;;;;;;;4942720;29;20688;-63
2022/03/25 12:50:39;;;;;;;23.00;12.75;;;;;;;;;;4942246;29;20641;-63
2022/03/25 12:53:05;;;;;;;21.40;12.65;;;;;;;;;;4942569;29;20563;-63
2022/03/25 12:55:32;;;;;;;20.63;12.40;;;;;;;;;;4942558;29;20653;-63
2022/03/25 12:58:05;;;;;;;19.33;11.73;;;;;;;;;;4942461;29;20154;-63
2022/03/25 13:00:32;;;;;;;23.25;12.38;;;;;;;;;;4942118;29;20184;-62
2022/03/25 13:02:58;;;;;;;20.83;13.50;;;;;;;;;;4942434;29;20169;-63
2022/03/25 13:05:25;;;;;;;22.38;12.88;;;;;;;;;;4941796;29;20187;-62
2022/03/25 13:07:52;;;;;;;22.60;13.38;;;;;;;;;;4939373;29;20183;-62
2022/03/25 13:10:19;;;;;;;19.27;12.45;;;;;;;;;;4939491;29;20187;-61
2022/03/25 13:12:51;;;;;;;21.17;12.93;;;;;;;;;;4938892;29;20161;-62
2022/03/25 13:15:18;;;;;;;23.98;12.82;;;;;;;;;;4938681;29;20169;-62
2022/03/25 13:17:47;;;;;;;26.60;14.50;;;;;;;;;;4938783;29;20169;-62
2022/03/25 13:20:13;;;;;;;28.02;14.68;;;;;;;;;;4937786;29;20492;-62
2022/03/25 13:22:53;;;;;;;28.25;15.23;;;;;;;;;;4938768;29;20205;-62
2022/03/25 13:25:24;;;;;;;23.58;14.35;;;;;;;;;;4939259;29;20157;-63
2022/03/25 13:27:50;;;;;;;24.75;12.85;;;;;;;;;;4938941;29;20161;-63
2022/03/25 13:30:16;;;;;;;26.02;14.65;;;;;;;;;;4939075;29;20165;-63
2022/03/25 13:32:42;;;;;;;23.17;11.88;;;;;;;;;;4938871;29;20594;-62
2022/03/25 13:35:13;;;;;;;22.20;12.90;;;;;;;;;;4938508;29;20173;-63
2022/03/25 13:37:39;;;;;;;22.52;13.77;;;;;;;;;;4938891;29;20506;-63
2022/03/25 13:40:25;;;;;;;25.33;14.88;;;;;;;;;;4938532;29;20305;-63
2022/03/25 13:42:58;;;;;;;26.58;15.10;;;;;;;;;;4938536;29;20153;-62
2022/03/25 13:45:24;;;;;;;27.38;15.35;;;;;;;;;;4938507;29;20625;-61
2022/03/25 13:48:01;;;;;;;28.77;15.65;;;;;;;;;;4938857;29;20208;-63
2022/03/25 13:50:27;;;;;;;29.63;16.25;;;;;;;;;;4938899;29;20184;-62
2022/03/25 13:52:59;;;;;;;34.17;17.52;;;;;;;;;;4937253;29;20173;-63
2022/03/25 13:55:32;;;;;;;33.92;18.23;;;;;;;;;;4938308;29;20668;-62
2022/03/25 13:57:59;;;;;;;34.08;18.65;;;;;;;;;;4938293;29;20606;-62
2022/03/25 14:00:35;;;;;;;35.17;19.52;;;;;;;;;;4937969;29;20188;-62
2022/03/25 14:03:02;;;;;;;39.00;20.00;;;;;;;;;;4937873;29;20169;-62
2022/03/25 14:05:28;;;;;;;46.88;23.02;;;;;;;;;;4938072;29;20255;-62
2022/03/25 14:07:55;;;;;;;44.60;22.48;;;;;;;;;;4938259;29;20211;-62
2022/03/25 14:10:21;;;;;;;41.42;22.58;;;;;;;;;;4938356;29;20640;-62
2022/03/25 14:13:05;;;;;;;48.00;25.40;;;;;;;;;;4938262;29;20200;-62
2022/03/25 14:15:31;;;;;;;43.22;23.10;;;;;;;;;;4938080;29;20153;-62
2022/03/25 14:17:57;;;;;;;45.20;24.13;;;;;;;;;;4937783;29;20183;-61
2022/03/25 14:20:25;;;;;;;42.53;23.33;;;;;;;;;;4937791;29;20165;-63
2022/03/25 14:22:52;;;;;;;45.50;24.90;;;;;;;;;;4937662;29;20200;-62
2022/03/25 14:25:19;;;;;;;46.33;25.70;;;;;;;;;;4937578;29;20597;-63